Terminal Aerodrome Forecast
Issued by NWS

Home | Current Version | Previous Version | Text Only | Print | Product List | Glossary On
Versions: 1 2 3 4 5 6 7 8 9 10 11 12 13 14 15 16 17 18 19
000
FTUS46 KSGX 010524
TAFSNA
TAF
KSNA 010524Z 0106/0206 VRB03KT P6SM -SHRA SCT035 BKN045
     FM010900 VRB03KT 6SM -SHRA BR BKN025 BKN035
     FM012000 21010KT P6SM -SHRA SCT025 BKN035
     FM020200 VRB05KT P6SM VCSH SCT025 BKN035=

USA.gov is the U.S. government's official web portal to all federal, state and local government web resources and services.